sensor_id;sensor_type;location;lat;lon;timestamp;P1;durP1;ratioP1;P2;durP2;ratioP2
69912;SDS011;57198;52.082;5.108;2023-07-31T00:00:33;8.63;;;3.28;;
69912;SDS011;57198;52.082;5.108;2023-07-31T00:03:00;13.27;;;4.18;;
69912;SDS011;57198;52.082;5.108;2023-07-31T00:05:28;13.52;;;4.10;;
69912;SDS011;57198;52.082;5.108;2023-07-31T00:07:55;15.00;;;4.72;;
69912;SDS011;57198;52.082;5.108;2023-07-31T00:10:22;19.97;;;5.10;;
69912;SDS011;57198;52.082;5.108;2023-07-31T00:12:50;21.50;;;5.82;;
69912;SDS011;57198;52.082;5.108;2023-07-31T00:15:17;15.65;;;4.47;;
69912;SDS011;57198;52.082;5.108;2023-07-31T00:17:44;24.75;;;6.40;;
69912;SDS011;57198;52.082;5.108;2023-07-31T00:20:12;26.88;;;6.43;;
69912;SDS011;57198;52.082;5.108;2023-07-31T00:22:39;18.33;;;6.00;;
69912;SDS011;57198;52.082;5.108;2023-07-31T00:25:06;23.92;;;5.70;;
69912;SDS011;57198;52.082;5.108;2023-07-31T00:27:34;24.92;;;6.15;;
69912;SDS011;57198;52.082;5.108;2023-07-31T00:30:01;21.25;;;6.45;;
69912;SDS011;57198;52.082;5.108;2023-07-31T00:32:28;22.35;;;6.07;;
69912;SDS011;57198;52.082;5.108;2023-07-31T00:34:56;19.50;;;5.20;;
69912;SDS011;57198;52.082;5.108;2023-07-31T00:37:23;18.73;;;5.43;;
69912;SDS011;57198;52.082;5.108;2023-07-31T00:39:51;29.00;;;6.50;;
69912;SDS011;57198;52.082;5.108;2023-07-31T00:42:18;24.25;;;6.40;;
69912;SDS011;57198;52.082;5.108;2023-07-31T00:44:47;23.08;;;7.05;;
69912;SDS011;57198;52.082;5.108;2023-07-31T00:47:15;21.70;;;6.47;;
69912;SDS011;57198;52.082;5.108;2023-07-31T00:49:42;23.45;;;6.03;;
69912;SDS011;57198;52.082;5.108;2023-07-31T00:52:10;23.67;;;6.35;;
69912;SDS011;57198;52.082;5.108;2023-07-31T00:54:38;23.48;;;5.90;;
69912;SDS011;57198;52.082;5.108;2023-07-31T00:57:05;25.55;;;5.80;;
69912;SDS011;57198;52.082;5.108;2023-07-31T00:59:34;23.10;;;6.67;;
69912;SDS011;57198;52.082;5.108;2023-07-31T01:02:02;20.52;;;5.22;;
69912;SDS011;57198;52.082;5.108;2023-07-31T01:04:29;23.83;;;6.13;;
69912;SDS011;57198;52.082;5.108;2023-07-31T01:07:01;16.90;;;5.55;;
69912;SDS011;57198;52.082;5.108;2023-07-31T01:12:18;23.10;;;5.80;;
69912;SDS011;57198;52.082;5.108;2023-07-31T01:15:20;23.90;;;6.28;;
69912;SDS011;57198;52.082;5.108;2023-07-31T01:17:41;19.95;;;5.78;;
69912;SDS011;57198;52.082;5.108;2023-07-31T01:20:20;22.45;;;6.43;;
69912;SDS011;57198;52.082;5.108;2023-07-31T01:22:59;19.15;;;5.78;;
69912;SDS011;57198;52.082;5.108;2023-07-31T01:31:20;21.95;;;6.00;;
69912;SDS011;57198;52.082;5.108;2023-07-31T01:33:53;22.77;;;5.70;;
69912;SDS011;57198;52.082;5.108;2023-07-31T01:36:21;22.63;;;7.50;;
69912;SDS011;57198;52.082;5.108;2023-07-31T01:38:49;24.03;;;6.97;;
69912;SDS011;57198;52.082;5.108;2023-07-31T01:41:19;19.67;;;6.13;;
69912;SDS011;57198;52.082;5.108;2023-07-31T01:43:46;21.13;;;6.30;;
69912;SDS011;57198;52.082;5.108;2023-07-31T01:46:14;23.23;;;5.93;;
69912;SDS011;57198;52.082;5.108;2023-07-31T01:48:41;20.92;;;6.28;;
69912;SDS011;57198;52.082;5.108;2023-07-31T01:51:08;22.57;;;5.60;;
69912;SDS011;57198;52.082;5.108;2023-07-31T01:53:36;10.82;;;4.72;;
69912;SDS011;57198;52.082;5.108;2023-07-31T01:56:03;12.82;;;3.92;;
69912;SDS011;57198;52.082;5.108;2023-07-31T01:58:32;11.52;;;4.68;;
69912;SDS011;57198;52.082;5.108;2023-07-31T02:00:59;12.50;;;4.75;;
69912;SDS011;57198;52.082;5.108;2023-07-31T02:03:26;14.93;;;5.53;;
69912;SDS011;57198;52.082;5.108;2023-07-31T02:05:54;16.23;;;5.07;;
69912;SDS011;57198;52.082;5.108;2023-07-31T02:08:24;15.27;;;5.05;;
69912;SDS011;57198;52.082;5.108;2023-07-31T02:10:51;20.30;;;5.28;;
69912;SDS011;57198;52.082;5.108;2023-07-31T02:13:19;15.30;;;4.45;;
69912;SDS011;57198;52.082;5.108;2023-07-31T02:15:46;10.30;;;3.80;;
69912;SDS011;57198;52.082;5.108;2023-07-31T02:18:13;14.90;;;4.47;;
69912;SDS011;57198;52.082;5.108;2023-07-31T02:20:41;15.45;;;4.90;;
69912;SDS011;57198;52.082;5.108;2023-07-31T02:23:08;14.43;;;5.20;;
69912;SDS011;57198;52.082;5.108;2023-07-31T02:25:36;18.98;;;6.05;;
69912;SDS011;57198;52.082;5.108;2023-07-31T02:28:03;17.40;;;5.00;;
69912;SDS011;57198;52.082;5.108;2023-07-31T02:30:30;12.98;;;4.53;;
69912;SDS011;57198;52.082;5.108;2023-07-31T02:32:58;14.73;;;4.82;;
69912;SDS011;57198;52.082;5.108;2023-07-31T02:35:25;19.65;;;5.75;;
69912;SDS011;57198;52.082;5.108;2023-07-31T02:37:52;22.85;;;6.25;;
69912;SDS011;57198;52.082;5.108;2023-07-31T02:40:20;18.87;;;5.70;;
69912;SDS011;57198;52.082;5.108;2023-07-31T02:42:47;15.80;;;5.38;;
69912;SDS011;57198;52.082;5.108;2023-07-31T02:45:14;23.65;;;5.65;;
69912;SDS011;57198;52.082;5.108;2023-07-31T02:47:42;20.58;;;6.75;;
69912;SDS011;57198;52.082;5.108;2023-07-31T02:50:09;26.83;;;6.93;;
69912;SDS011;57198;52.082;5.108;2023-07-31T02:52:37;20.90;;;5.63;;
69912;SDS011;57198;52.082;5.108;2023-07-31T02:55:05;19.80;;;6.72;;
69912;SDS011;57198;52.082;5.108;2023-07-31T02:57:32;16.15;;;4.88;;
69912;SDS011;57198;52.082;5.108;2023-07-31T02:59:59;22.15;;;6.35;;
69912;SDS011;57198;52.082;5.108;2023-07-31T03:02:27;22.38;;;5.88;;
69912;SDS011;57198;52.082;5.108;2023-07-31T03:04:54;17.20;;;5.30;;
69912;SDS011;57198;52.082;5.108;2023-07-31T03:07:22;19.25;;;5.65;;
69912;SDS011;57198;52.082;5.108;2023-07-31T03:09:49;17.08;;;5.53;;
69912;SDS011;57198;52.082;5.108;2023-07-31T03:12:16;19.02;;;5.88;;
69912;SDS011;57198;52.082;5.108;2023-07-31T03:14:44;21.80;;;5.95;;
69912;SDS011;57198;52.082;5.108;2023-07-31T03:17:11;26.13;;;6.73;;
69912;SDS011;57198;52.082;5.108;2023-07-31T03:19:39;19.48;;;5.68;;
69912;SDS011;57198;52.082;5.108;2023-07-31T03:22:07;22.55;;;6.32;;
69912;SDS011;57198;52.082;5.108;2023-07-31T03:24:34;21.60;;;6.28;;
69912;SDS011;57198;52.082;5.108;2023-07-31T03:27:01;20.60;;;6.13;;
69912;SDS011;57198;52.082;5.108;2023-07-31T03:29:29;17.00;;;6.23;;
69912;SDS011;57198;52.082;5.108;2023-07-31T03:31:56;17.98;;;6.07;;
69912;SDS011;57198;52.082;5.108;2023-07-31T03:34:23;20.98;;;5.70;;
69912;SDS011;57198;52.082;5.108;2023-07-31T03:36:51;18.80;;;5.55;;
69912;SDS011;57198;52.082;5.108;2023-07-31T03:39:18;16.85;;;4.88;;
69912;SDS011;57198;52.082;5.108;2023-07-31T03:41:45;19.33;;;5.57;;
69912;SDS011;57198;52.082;5.108;2023-07-31T03:44:13;19.27;;;5.40;;
69912;SDS011;57198;52.082;5.108;2023-07-31T03:46:40;16.35;;;5.43;;
69912;SDS011;57198;52.082;5.108;2023-07-31T03:49:08;17.63;;;5.53;;
69912;SDS011;57198;52.082;5.108;2023-07-31T03:51:35;19.88;;;5.72;;
69912;SDS011;57198;52.082;5.108;2023-07-31T03:54:03;19.83;;;5.97;;
69912;SDS011;57198;52.082;5.108;2023-07-31T03:56:30;18.75;;;5.70;;
69912;SDS011;57198;52.082;5.108;2023-07-31T03:59:01;13.63;;;5.50;;
69912;SDS011;57198;52.082;5.108;2023-07-31T04:01:28;22.65;;;6.25;;
69912;SDS011;57198;52.082;5.108;2023-07-31T04:03:56;19.05;;;6.30;;
69912;SDS011;57198;52.082;5.108;2023-07-31T04:06:23;18.47;;;6.10;;
69912;SDS011;57198;52.082;5.108;2023-07-31T04:08:50;20.08;;;5.80;;
69912;SDS011;57198;52.082;5.108;2023-07-31T04:11:18;16.83;;;5.50;;
69912;SDS011;57198;52.082;5.108;2023-07-31T04:13:48;12.65;;;4.63;;
69912;SDS011;57198;52.082;5.108;2023-07-31T04:16:15;15.82;;;5.95;;
69912;SDS011;57198;52.082;5.108;2023-07-31T04:18:42;21.67;;;5.40;;
69912;SDS011;57198;52.082;5.108;2023-07-31T04:21:10;13.95;;;6.05;;
69912;SDS011;57198;52.082;5.108;2023-07-31T04:23:37;20.23;;;5.95;;
69912;SDS011;57198;52.082;5.108;2023-07-31T04:26:05;21.65;;;6.50;;
69912;SDS011;57198;52.082;5.108;2023-07-31T04:28:32;10.93;;;4.28;;
69912;SDS011;57198;52.082;5.108;2023-07-31T04:30:59;15.40;;;5.40;;
69912;SDS011;57198;52.082;5.108;2023-07-31T04:33:27;12.45;;;5.28;;
69912;SDS011;57198;52.082;5.108;2023-07-31T04:35:54;17.88;;;6.03;;
69912;SDS011;57198;52.082;5.108;2023-07-31T04:38:22;11.65;;;3.80;;
69912;SDS011;57198;52.082;5.108;2023-07-31T04:40:49;18.80;;;6.20;;
69912;SDS011;57198;52.082;5.108;2023-07-31T04:43:16;16.10;;;6.13;;
69912;SDS011;57198;52.082;5.108;2023-07-31T04:45:47;16.30;;;5.82;;
69912;SDS011;57198;52.082;5.108;2023-07-31T04:48:16;14.63;;;5.55;;
69912;SDS011;57198;52.082;5.108;2023-07-31T04:50:43;15.35;;;6.43;;
69912;SDS011;57198;52.082;5.108;2023-07-31T04:53:11;12.80;;;5.00;;
69912;SDS011;57198;52.082;5.108;2023-07-31T04:55:38;9.80;;;4.83;;
69912;SDS011;57198;52.082;5.108;2023-07-31T04:58:05;13.63;;;5.13;;
69912;SDS011;57198;52.082;5.108;2023-07-31T05:00:33;10.07;;;5.28;;
69912;SDS011;57198;52.082;5.108;2023-07-31T05:03:00;18.85;;;6.05;;
69912;SDS011;57198;52.082;5.108;2023-07-31T05:05:27;14.02;;;5.70;;
69912;SDS011;57198;52.082;5.108;2023-07-31T05:07:55;10.63;;;4.50;;
69912;SDS011;57198;52.082;5.108;2023-07-31T05:10:22;8.50;;;4.32;;
69912;SDS011;57198;52.082;5.108;2023-07-31T05:12:50;9.60;;;4.55;;
69912;SDS011;57198;52.082;5.108;2023-07-31T05:15:17;8.45;;;3.60;;
69912;SDS011;57198;52.082;5.108;2023-07-31T05:17:44;8.63;;;3.85;;
69912;SDS011;57198;52.082;5.108;2023-07-31T05:20:12;8.13;;;3.43;;
69912;SDS011;57198;52.082;5.108;2023-07-31T05:22:39;11.57;;;4.32;;
69912;SDS011;57198;52.082;5.108;2023-07-31T05:25:06;7.22;;;3.58;;
69912;SDS011;57198;52.082;5.108;2023-07-31T05:27:34;11.65;;;4.22;;
69912;SDS011;57198;52.082;5.108;2023-07-31T05:30:01;10.00;;;4.38;;
69912;SDS011;57198;52.082;5.108;2023-07-31T05:32:29;9.30;;;3.97;;
69912;SDS011;57198;52.082;5.108;2023-07-31T05:34:56;9.73;;;4.22;;
69912;SDS011;57198;52.082;5.108;2023-07-31T05:37:24;10.45;;;4.57;;
69912;SDS011;57198;52.082;5.108;2023-07-31T05:39:51;9.30;;;4.65;;
69912;SDS011;57198;52.082;5.108;2023-07-31T05:42:19;10.02;;;4.63;;
69912;SDS011;57198;52.082;5.108;2023-07-31T05:44:46;10.57;;;5.00;;
69912;SDS011;57198;52.082;5.108;2023-07-31T05:47:13;9.27;;;4.80;;
69912;SDS011;57198;52.082;5.108;2023-07-31T05:49:41;11.55;;;4.30;;
69912;SDS011;57198;52.082;5.108;2023-07-31T05:52:08;9.98;;;4.43;;
69912;SDS011;57198;52.082;5.108;2023-07-31T05:54:36;8.20;;;3.95;;
69912;SDS011;57198;52.082;5.108;2023-07-31T05:57:03;9.80;;;4.33;;
69912;SDS011;57198;52.082;5.108;2023-07-31T05:59:31;10.45;;;4.45;;
69912;SDS011;57198;52.082;5.108;2023-07-31T06:01:59;9.85;;;3.92;;
69912;SDS011;57198;52.082;5.108;2023-07-31T06:04:26;8.48;;;3.90;;
69912;SDS011;57198;52.082;5.108;2023-07-31T06:06:54;8.60;;;3.70;;
69912;SDS011;57198;52.082;5.108;2023-07-31T06:09:21;8.20;;;4.23;;
69912;SDS011;57198;52.082;5.108;2023-07-31T06:11:49;6.13;;;3.28;;
69912;SDS011;57198;52.082;5.108;2023-07-31T06:14:16;6.70;;;3.90;;
69912;SDS011;57198;52.082;5.108;2023-07-31T06:16:44;7.32;;;3.63;;
69912;SDS011;57198;52.082;5.108;2023-07-31T06:19:11;6.97;;;3.35;;
69912;SDS011;57198;52.082;5.108;2023-07-31T06:21:39;7.27;;;3.37;;
69912;SDS011;57198;52.082;5.108;2023-07-31T06:24:08;5.90;;;2.83;;
69912;SDS011;57198;52.082;5.108;2023-07-31T06:26:36;7.93;;;3.53;;
69912;SDS011;57198;52.082;5.108;2023-07-31T06:29:04;4.53;;;2.78;;
69912;SDS011;57198;52.082;5.108;2023-07-31T06:31:31;5.60;;;3.13;;
69912;SDS011;57198;52.082;5.108;2023-07-31T06:33:58;5.70;;;3.03;;
69912;SDS011;57198;52.082;5.108;2023-07-31T06:36:26;8.13;;;3.60;;
69912;SDS011;57198;52.082;5.108;2023-07-31T06:38:53;8.13;;;2.88;;
69912;SDS011;57198;52.082;5.108;2023-07-31T06:41:21;5.53;;;3.38;;
69912;SDS011;57198;52.082;5.108;2023-07-31T06:43:48;8.07;;;2.53;;
69912;SDS011;57198;52.082;5.108;2023-07-31T06:46:15;5.97;;;3.20;;
69912;SDS011;57198;52.082;5.108;2023-07-31T06:48:43;5.50;;;3.67;;
69912;SDS011;57198;52.082;5.108;2023-07-31T06:51:10;5.13;;;2.90;;
69912;SDS011;57198;52.082;5.108;2023-07-31T06:53:37;6.50;;;2.95;;
69912;SDS011;57198;52.082;5.108;2023-07-31T06:56:05;5.60;;;2.90;;
69912;SDS011;57198;52.082;5.108;2023-07-31T06:58:32;5.93;;;2.87;;
69912;SDS011;57198;52.082;5.108;2023-07-31T07:00:59;6.20;;;3.00;;
69912;SDS011;57198;52.082;5.108;2023-07-31T07:03:27;3.92;;;2.63;;
69912;SDS011;57198;52.082;5.108;2023-07-31T07:05:54;4.90;;;2.78;;
69912;SDS011;57198;52.082;5.108;2023-07-31T07:08:22;3.65;;;2.15;;
69912;SDS011;57198;52.082;5.108;2023-07-31T07:10:52;4.50;;;2.93;;
69912;SDS011;57198;52.082;5.108;2023-07-31T07:13:21;9.55;;;3.22;;
69912;SDS011;57198;52.082;5.108;2023-07-31T07:15:48;3.42;;;1.90;;
69912;SDS011;57198;52.082;5.108;2023-07-31T07:18:16;4.25;;;2.78;;
69912;SDS011;57198;52.082;5.108;2023-07-31T07:20:53;4.95;;;2.58;;
69912;SDS011;57198;52.082;5.108;2023-07-31T07:23:21;5.17;;;2.90;;
69912;SDS011;57198;52.082;5.108;2023-07-31T07:25:48;5.43;;;3.00;;
69912;SDS011;57198;52.082;5.108;2023-07-31T07:28:15;4.20;;;2.92;;
69912;SDS011;57198;52.082;5.108;2023-07-31T07:30:43;3.80;;;2.78;;
69912;SDS011;57198;52.082;5.108;2023-07-31T07:33:10;6.45;;;2.55;;
69912;SDS011;57198;52.082;5.108;2023-07-31T07:35:38;5.40;;;2.83;;
69912;SDS011;57198;52.082;5.108;2023-07-31T07:38:06;4.55;;;2.33;;
69912;SDS011;57198;52.082;5.108;2023-07-31T07:40:37;3.42;;;1.90;;
69912;SDS011;57198;52.082;5.108;2023-07-31T07:43:05;4.47;;;2.25;;
69912;SDS011;57198;52.082;5.108;2023-07-31T07:45:32;4.13;;;2.03;;
69912;SDS011;57198;52.082;5.108;2023-07-31T07:47:59;2.53;;;2.07;;
69912;SDS011;57198;52.082;5.108;2023-07-31T07:50:27;4.22;;;1.83;;
69912;SDS011;57198;52.082;5.108;2023-07-31T07:52:54;2.03;;;1.83;;
69912;SDS011;57198;52.082;5.108;2023-07-31T07:55:22;2.65;;;1.70;;
69912;SDS011;57198;52.082;5.108;2023-07-31T07:57:49;2.03;;;1.67;;
69912;SDS011;57198;52.082;5.108;2023-07-31T08:00:16;1.60;;;1.43;;
69912;SDS011;57198;52.082;5.108;2023-07-31T08:02:44;2.08;;;1.85;;
69912;SDS011;57198;52.082;5.108;2023-07-31T08:05:12;2.40;;;1.92;;
69912;SDS011;57198;52.082;5.108;2023-07-31T08:07:39;2.80;;;2.20;;
69912;SDS011;57198;52.082;5.108;2023-07-31T08:10:06;4.03;;;1.73;;
69912;SDS011;57198;52.082;5.108;2023-07-31T08:12:34;1.97;;;1.50;;
69912;SDS011;57198;52.082;5.108;2023-07-31T08:15:01;1.83;;;1.55;;
69912;SDS011;57198;52.082;5.108;2023-07-31T08:17:29;1.80;;;1.52;;
69912;SDS011;57198;52.082;5.108;2023-07-31T08:19:56;1.88;;;1.65;;
69912;SDS011;57198;52.082;5.108;2023-07-31T08:22:25;1.55;;;1.45;;
69912;SDS011;57198;52.082;5.108;2023-07-31T08:24:52;2.37;;;1.70;;
69912;SDS011;57198;52.082;5.108;2023-07-31T08:27:19;1.40;;;1.10;;
69912;SDS011;57198;52.082;5.108;2023-07-31T08:29:47;1.48;;;1.30;;
69912;SDS011;57198;52.082;5.108;2023-07-31T08:32:14;1.65;;;1.55;;
69912;SDS011;57198;52.082;5.108;2023-07-31T08:34:42;1.75;;;1.40;;
69912;SDS011;57198;52.082;5.108;2023-07-31T08:37:09;1.93;;;1.40;;
69912;SDS011;57198;52.082;5.108;2023-07-31T08:39:37;3.92;;;1.63;;
69912;SDS011;57198;52.082;5.108;2023-07-31T08:42:08;1.50;;;1.10;;
69912;SDS011;57198;52.082;5.108;2023-07-31T08:44:35;1.85;;;1.50;;
69912;SDS011;57198;52.082;5.108;2023-07-31T08:47:03;1.48;;;1.38;;
69912;SDS011;57198;52.082;5.108;2023-07-31T08:49:31;1.83;;;1.53;;
69912;SDS011;57198;52.082;5.108;2023-07-31T08:51:58;1.77;;;1.67;;
69912;SDS011;57198;52.082;5.108;2023-07-31T08:54:26;2.47;;;1.35;;
69912;SDS011;57198;52.082;5.108;2023-07-31T08:56:57;2.10;;;1.95;;
69912;SDS011;57198;52.082;5.108;2023-07-31T08:59:29;1.70;;;1.60;;
69912;SDS011;57198;52.082;5.108;2023-07-31T09:01:58;2.03;;;1.93;;
69912;SDS011;57198;52.082;5.108;2023-07-31T09:04:28;2.33;;;2.13;;
69912;SDS011;57198;52.082;5.108;2023-07-31T09:07:00;1.65;;;1.55;;
69912;SDS011;57198;52.082;5.108;2023-07-31T09:09:28;2.95;;;2.03;;
69912;SDS011;57198;52.082;5.108;2023-07-31T09:11:55;1.92;;;1.58;;
69912;SDS011;57198;52.082;5.108;2023-07-31T09:14:23;4.10;;;2.07;;
69912;SDS011;57198;52.082;5.108;2023-07-31T09:16:54;1.67;;;1.58;;
69912;SDS011;57198;52.082;5.108;2023-07-31T09:19:29;1.60;;;1.50;;
69912;SDS011;57198;52.082;5.108;2023-07-31T09:21:57;2.15;;;1.95;;
69912;SDS011;57198;52.082;5.108;2023-07-31T09:24:25;2.42;;;1.85;;
69912;SDS011;57198;52.082;5.108;2023-07-31T09:26:54;1.73;;;1.63;;
69912;SDS011;57198;52.082;5.108;2023-07-31T09:29:25;2.35;;;2.08;;
69912;SDS011;57198;52.082;5.108;2023-07-31T09:31:53;2.05;;;1.88;;
69912;SDS011;57198;52.082;5.108;2023-07-31T09:34:28;1.67;;;1.58;;
69912;SDS011;57198;52.082;5.108;2023-07-31T09:36:58;2.03;;;1.83;;
69912;SDS011;57198;52.082;5.108;2023-07-31T09:39:29;2.80;;;1.80;;
69912;SDS011;57198;52.082;5.108;2023-07-31T09:41:56;1.65;;;1.55;;
69912;SDS011;57198;52.082;5.108;2023-07-31T09:44:39;1.85;;;1.50;;
69912;SDS011;57198;52.082;5.108;2023-07-31T09:47:20;1.80;;;1.70;;
69912;SDS011;57198;52.082;5.108;2023-07-31T09:49:49;1.75;;;1.63;;
69912;SDS011;57198;52.082;5.108;2023-07-31T09:52:20;2.13;;;2.03;;
69912;SDS011;57198;52.082;5.108;2023-07-31T09:54:47;2.00;;;1.90;;
69912;SDS011;57198;52.082;5.108;2023-07-31T09:57:15;2.83;;;2.10;;
69912;SDS011;57198;52.082;5.108;2023-07-31T09:59:46;2.65;;;2.45;;
69912;SDS011;57198;52.082;5.108;2023-07-31T10:02:14;3.05;;;1.85;;
69912;SDS011;57198;52.082;5.108;2023-07-31T10:04:42;2.90;;;2.53;;
69912;SDS011;57198;52.082;5.108;2023-07-31T10:07:12;4.90;;;2.38;;
69912;SDS011;57198;52.082;5.108;2023-07-31T10:09:40;5.65;;;3.00;;
69912;SDS011;57198;52.082;5.108;2023-07-31T10:12:08;3.22;;;2.92;;
69912;SDS011;57198;52.082;5.108;2023-07-31T10:14:36;5.03;;;3.78;;
69912;SDS011;57198;52.082;5.108;2023-07-31T10:17:05;3.40;;;3.10;;
69912;SDS011;57198;52.082;5.108;2023-07-31T10:19:33;3.10;;;2.88;;
69912;SDS011;57198;52.082;5.108;2023-07-31T10:22:02;3.83;;;3.42;;
69912;SDS011;57198;52.082;5.108;2023-07-31T10:24:30;4.05;;;3.65;;
69912;SDS011;57198;52.082;5.108;2023-07-31T10:26:58;4.97;;;3.42;;
69912;SDS011;57198;52.082;5.108;2023-07-31T10:29:26;3.50;;;3.00;;
69912;SDS011;57198;52.082;5.108;2023-07-31T10:31:57;3.60;;;3.30;;
69912;SDS011;57198;52.082;5.108;2023-07-31T10:34:24;3.83;;;3.53;;
69912;SDS011;57198;52.082;5.108;2023-07-31T10:37:19;2.95;;;2.75;;
69912;SDS011;57198;52.082;5.108;2023-07-31T10:39:39;3.17;;;2.85;;
69912;SDS011;57198;52.082;5.108;2023-07-31T10:42:12;3.50;;;3.00;;
69912;SDS011;57198;52.082;5.108;2023-07-31T10:44:43;4.53;;;2.75;;
69912;SDS011;57198;52.082;5.108;2023-07-31T10:47:14;2.90;;;2.60;;
69912;SDS011;57198;52.082;5.108;2023-07-31T10:49:44;3.97;;;2.40;;
69912;SDS011;57198;52.082;5.108;2023-07-31T10:52:12;3.17;;;2.55;;
69912;SDS011;57198;52.082;5.108;2023-07-31T10:54:40;2.10;;;1.90;;
69912;SDS011;57198;52.082;5.108;2023-07-31T10:57:20;6.85;;;2.63;;
69912;SDS011;57198;52.082;5.108;2023-07-31T10:59:48;2.58;;;1.80;;
69912;SDS011;57198;52.082;5.108;2023-07-31T11:02:26;1.67;;;1.58;;
69912;SDS011;57198;52.082;5.108;2023-07-31T11:05:06;3.05;;;1.92;;
69912;SDS011;57198;52.082;5.108;2023-07-31T11:07:47;2.10;;;1.80;;
69912;SDS011;57198;52.082;5.108;2023-07-31T11:10:18;2.17;;;1.50;;
69912;SDS011;57198;52.082;5.108;2023-07-31T11:12:46;2.57;;;2.10;;
69912;SDS011;57198;52.082;5.108;2023-07-31T11:15:13;4.93;;;2.40;;
69912;SDS011;57198;52.082;5.108;2023-07-31T11:17:41;2.95;;;2.08;;
69912;SDS011;57198;52.082;5.108;2023-07-31T11:20:08;3.63;;;2.10;;
69912;SDS011;57198;52.082;5.108;2023-07-31T11:22:36;3.67;;;2.00;;
69912;SDS011;57198;52.082;5.108;2023-07-31T11:25:03;4.03;;;2.60;;
69912;SDS011;57198;52.082;5.108;2023-07-31T11:27:31;2.60;;;2.40;;
69912;SDS011;57198;52.082;5.108;2023-07-31T11:30:06;4.63;;;2.65;;
69912;SDS011;57198;52.082;5.108;2023-07-31T11:32:33;4.50;;;2.97;;
69912;SDS011;57198;52.082;5.108;2023-07-31T11:35:01;4.05;;;2.72;;
69912;SDS011;57198;52.082;5.108;2023-07-31T11:37:41;4.93;;;3.53;;
69912;SDS011;57198;52.082;5.108;2023-07-31T11:40:09;7.22;;;3.47;;
69912;SDS011;57198;52.082;5.108;2023-07-31T11:42:36;3.70;;;2.88;;
69912;SDS011;57198;52.082;5.108;2023-07-31T11:45:04;4.70;;;3.40;;
69912;SDS011;57198;52.082;5.108;2023-07-31T11:47:32;3.38;;;2.97;;
69912;SDS011;57198;52.082;5.108;2023-07-31T11:50:04;4.40;;;3.90;;
69912;SDS011;57198;52.082;5.108;2023-07-31T11:52:34;5.43;;;4.15;;
69912;SDS011;57198;52.082;5.108;2023-07-31T11:55:02;6.47;;;4.07;;
69912;SDS011;57198;52.082;5.108;2023-07-31T11:57:30;5.32;;;4.18;;
69912;SDS011;57198;52.082;5.108;2023-07-31T11:59:57;4.20;;;3.63;;
69912;SDS011;57198;52.082;5.108;2023-07-31T12:02:25;4.13;;;3.80;;
69912;SDS011;57198;52.082;5.108;2023-07-31T12:04:52;3.70;;;3.22;;
69912;SDS011;57198;52.082;5.108;2023-07-31T12:07:19;3.45;;;3.10;;
69912;SDS011;57198;52.082;5.108;2023-07-31T12:09:51;6.03;;;3.53;;
69912;SDS011;57198;52.082;5.108;2023-07-31T12:12:19;4.32;;;3.72;;
69912;SDS011;57198;52.082;5.108;2023-07-31T12:14:47;4.63;;;3.67;;
69912;SDS011;57198;52.082;5.108;2023-07-31T12:17:14;3.30;;;3.05;;
69912;SDS011;57198;52.082;5.108;2023-07-31T12:19:42;3.67;;;3.05;;
69912;SDS011;57198;52.082;5.108;2023-07-31T12:22:16;3.60;;;3.30;;
69912;SDS011;57198;52.082;5.108;2023-07-31T12:24:43;3.15;;;2.83;;
69912;SDS011;57198;52.082;5.108;2023-07-31T12:27:11;4.03;;;2.67;;
69912;SDS011;57198;52.082;5.108;2023-07-31T12:29:39;4.07;;;3.60;;
69912;SDS011;57198;52.082;5.108;2023-07-31T12:32:20;3.92;;;3.63;;
69912;SDS011;57198;52.082;5.108;2023-07-31T12:34:47;4.57;;;2.92;;
69912;SDS011;57198;52.082;5.108;2023-07-31T12:37:15;3.53;;;2.70;;
69912;SDS011;57198;52.082;5.108;2023-07-31T12:39:42;3.20;;;2.90;;
69912;SDS011;57198;52.082;5.108;2023-07-31T12:42:09;3.65;;;3.35;;
69912;SDS011;57198;52.082;5.108;2023-07-31T12:44:37;3.50;;;3.20;;
69912;SDS011;57198;52.082;5.108;2023-07-31T12:47:04;3.28;;;3.00;;
69912;SDS011;57198;52.082;5.108;2023-07-31T12:49:32;7.35;;;3.20;;
69912;SDS011;57198;52.082;5.108;2023-07-31T12:51:59;3.60;;;3.40;;
69912;SDS011;57198;52.082;5.108;2023-07-31T12:54:26;3.80;;;3.50;;
69912;SDS011;57198;52.082;5.108;2023-07-31T12:56:54;3.53;;;3.30;;
69912;SDS011;57198;52.082;5.108;2023-07-31T12:59:24;3.45;;;2.67;;
69912;SDS011;57198;52.082;5.108;2023-07-31T13:01:51;3.22;;;2.92;;
69912;SDS011;57198;52.082;5.108;2023-07-31T13:04:19;3.27;;;3.07;;
69912;SDS011;57198;52.082;5.108;2023-07-31T13:06:46;3.70;;;3.40;;
69912;SDS011;57198;52.082;5.108;2023-07-31T13:09:13;3.65;;;2.70;;
69912;SDS011;57198;52.082;5.108;2023-07-31T13:11:43;3.78;;;2.78;;
69912;SDS011;57198;52.082;5.108;2023-07-31T13:14:11;3.10;;;2.83;;
69912;SDS011;57198;52.082;5.108;2023-07-31T13:16:38;3.97;;;3.00;;
69912;SDS011;57198;52.082;5.108;2023-07-31T13:19:06;3.70;;;3.20;;
69912;SDS011;57198;52.082;5.108;2023-07-31T13:21:33;3.92;;;2.70;;
69912;SDS011;57198;52.082;5.108;2023-07-31T13:24:03;2.97;;;2.60;;
69912;SDS011;57198;52.082;5.108;2023-07-31T13:26:30;2.70;;;2.13;;
69912;SDS011;57198;52.082;5.108;2023-07-31T13:28:58;1.50;;;1.40;;
69912;SDS011;57198;52.082;5.108;2023-07-31T13:31:25;1.38;;;1.27;;
69912;SDS011;57198;52.082;5.108;2023-07-31T13:33:53;1.48;;;1.38;;
69912;SDS011;57198;52.082;5.108;2023-07-31T13:36:20;1.23;;;1.23;;
69912;SDS011;57198;52.082;5.108;2023-07-31T13:38:47;1.50;;;1.40;;
69912;SDS011;57198;52.082;5.108;2023-07-31T13:41:15;2.47;;;2.27;;
69912;SDS011;57198;52.082;5.108;2023-07-31T13:43:42;2.38;;;2.28;;
69912;SDS011;57198;52.082;5.108;2023-07-31T13:46:09;2.25;;;1.70;;
69912;SDS011;57198;52.082;5.108;2023-07-31T13:48:37;2.22;;;2.03;;
69912;SDS011;57198;52.082;5.108;2023-07-31T13:51:05;1.20;;;1.10;;
69912;SDS011;57198;52.082;5.108;2023-07-31T13:53:32;1.53;;;1.43;;
69912;SDS011;57198;52.082;5.108;2023-07-31T13:55:59;1.50;;;1.40;;
69912;SDS011;57198;52.082;5.108;2023-07-31T13:58:27;1.67;;;1.58;;
69912;SDS011;57198;52.082;5.108;2023-07-31T14:00:54;2.63;;;1.50;;
69912;SDS011;57198;52.082;5.108;2023-07-31T14:03:22;1.80;;;1.70;;
69912;SDS011;57198;52.082;5.108;2023-07-31T14:05:50;2.27;;;2.13;;
69912;SDS011;57198;52.082;5.108;2023-07-31T14:08:17;2.28;;;1.65;;
69912;SDS011;57198;52.082;5.108;2023-07-31T14:10:44;2.00;;;1.90;;
69912;SDS011;57198;52.082;5.108;2023-07-31T14:13:12;2.00;;;1.90;;
69912;SDS011;57198;52.082;5.108;2023-07-31T14:15:41;1.65;;;1.55;;
69912;SDS011;57198;52.082;5.108;2023-07-31T14:18:09;2.83;;;1.40;;
69912;SDS011;57198;52.082;5.108;2023-07-31T14:20:36;2.15;;;2.00;;
69912;SDS011;57198;52.082;5.108;2023-07-31T14:23:04;1.65;;;1.55;;
69912;SDS011;57198;52.082;5.108;2023-07-31T14:25:31;2.03;;;1.83;;
69912;SDS011;57198;52.082;5.108;2023-07-31T14:27:59;2.83;;;2.60;;
69912;SDS011;57198;52.082;5.108;2023-07-31T14:30:26;3.10;;;2.90;;
69912;SDS011;57198;52.082;5.108;2023-07-31T14:32:54;4.43;;;3.58;;
69912;SDS011;57198;52.082;5.108;2023-07-31T14:35:22;3.15;;;2.55;;
69912;SDS011;57198;52.082;5.108;2023-07-31T14:37:50;2.50;;;2.30;;
69912;SDS011;57198;52.082;5.108;2023-07-31T14:40:17;2.28;;;2.17;;
69912;SDS011;57198;52.082;5.108;2023-07-31T14:42:44;2.00;;;1.90;;
69912;SDS011;57198;52.082;5.108;2023-07-31T14:45:12;4.72;;;1.60;;
69912;SDS011;57198;52.082;5.108;2023-07-31T14:47:39;1.92;;;1.73;;
69912;SDS011;57198;52.082;5.108;2023-07-31T14:50:07;2.30;;;1.70;;
69912;SDS011;57198;52.082;5.108;2023-07-31T14:52:34;3.33;;;2.40;;
69912;SDS011;57198;52.082;5.108;2023-07-31T14:55:01;3.00;;;2.73;;
69912;SDS011;57198;52.082;5.108;2023-07-31T14:57:29;2.53;;;2.33;;